Latest Weather Observations for Ngayawili (Elcho Island)

IDD60801

Issued at 9:01 am CST Monday 27 February 2017 (issued every 30 minutes, with the page automatically refreshed every 10 minutes)

About weather observations | Map of weather stations | Latest weather observations for NT | Other Formats
Station Details ID: 014517 Name: NGAYAWILI Lat: -12.00 Lon: 135.57 Height: 8.1 m
Data from the previous 72 hours. | See also: Recent months at Ngayawili (Elcho Island)
Date/Time
CST
Temp
°C
App
Temp
°C
Dew
Point
°C
Rel
Hum
%
Delta-T
°C
Wind Press
QNH
hPa
Press
MSL
hPa
Rain since
9am
mm
Dir  Spd
km/h
Gust
km/h
Spd
kts
Gust
kts
27/09:00am 28.6 33.5 25.2 82 2.4 SE 9 15 5 8 1009.6 1009.5 15.0
27/08:30am 27.7 33.1 25.5 88 1.5 SE 7 13 4 7 1009.5 1009.4 15.0
27/08:00am 27.0 32.4 26.0 94 0.7 SSE 9 11 5 6 1009.1 1009.0 15.0
27/07:30am 26.1 30.8 25.6 97 0.4 SE 11 15 6 8 1008.6 1008.5 15.0
27/07:00am 25.4 30.2 25.1 98 0.2 SE 9 15 5 8 1008.1 1008.0 14.8
27/06:30am 25.1 30.1 24.8 98 0.2 SE 7 9 4 5 1007.9 1007.8 14.8
27/06:00am 25.3 30.0 25.0 98 0.2 SSE 9 11 5 6 1007.8 1007.7 14.8
27/05:30am 25.3 30.0 25.0 98 0.2 SE 9 11 5 6 1007.5 1007.4 14.8
27/05:00am 25.3 30.0 25.0 98 0.2 SE 9 11 5 6 1007.6 1007.5 14.8
27/04:30am 25.3 30.0 25.0 98 0.2 SE 9 11 5 6 1007.7 1007.6 14.8
27/04:00am 25.3 30.0 25.0 98 0.2 SE 9 11 5 6 1007.7 1007.6 14.8
27/03:30am 25.4 29.8 25.1 98 0.2 SE 11 13 6 7 1007.7 1007.6 14.8
27/03:00am 25.5 30.4 25.2 98 0.2 SE 9 11 5 6 1007.9 1007.8 14.8
27/02:30am 25.7 31.0 25.2 97 0.3 SE 7 9 4 5 1007.7 1007.6 14.8
27/02:00am 25.7 30.6 25.2 97 0.3 SE 9 9 5 5 1008.2 1008.1 14.8
27/01:30am 25.8 31.1 25.3 97 0.3 SE 7 9 4 5 1008.4 1008.3 14.8
27/01:00am 25.9 30.9 25.4 97 0.3 SE 9 11 5 6 1008.6 1008.5 14.8
27/12:30am 26.2 31.8 25.7 97 0.4 SSE 7 11 4 6 1008.7 1008.6 14.8
27/12:00am 26.1 31.1 25.4 96 0.5 ESE 9 11 5 6 1008.7 1008.6 14.8
 
Date/Time
CST
Temp
°C
App
Temp
°C
Dew
Point
°C
Rel
Hum
%
Delta-T
°C
Wind Press
QNH
hPa
Press
MSL
hPa
Rain since
9am
mm
Dir  Spd
km/h
Gust
km/h
Spd
kts
Gust
kts
26/11:30pm 26.3 31.0 25.6 96 0.5 SE 11 15 6 8 1009.1 1009.0 14.6
26/11:00pm 26.6 31.7 25.6 94 0.7 ESE 9 11 5 6 1009.0 1008.9 14.6
26/10:30pm 26.6 31.9 25.9 96 0.5 SE 9 9 5 5 1009.4 1009.3 14.6
26/10:00pm 26.6 32.2 25.7 95 0.6 ESE 7 9 4 5 1009.2 1009.1 14.6
26/09:30pm 26.8 32.1 25.8 94 0.7 ESE 9 11 5 6 1008.6 1008.5 14.6
26/09:00pm 27.3 32.4 25.5 90 1.3 SSE 9 11 5 6 1008.3 1008.2 13.8
26/08:30pm 27.8 32.5 25.0 85 2.0 NE 9 15 5 8 1008.1 1008.0 13.4
26/08:00pm 27.8 33.1 25.2 86 1.8 NE 7 13 4 7 1007.9 1007.8 13.4
26/07:30pm 27.9 32.6 24.9 84 2.1 ENE 9 13 5 7 1007.5 1007.4 13.4
26/07:00pm 28.2 31.9 24.6 81 2.5 NE 13 19 7 10 1006.8 1006.7 13.4
26/06:30pm 28.2 32.3 24.6 81 2.5 NE 11 17 6 9 1006.7 1006.6 13.4
26/06:00pm 28.4 32.4 25.0 82 2.4 NE 13 22 7 12 1006.2 1006.1 13.4
26/05:30pm 28.3 33.4 25.5 85 2.0 ENE 9 17 5 9 1006.2 1006.1 13.4
26/05:00pm 28.0 33.1 25.6 87 1.7 NE 9 17 5 9 1006.3 1006.2 13.4
26/04:30pm 27.8 32.3 25.2 86 1.8 NE 11 19 6 10 1005.9 1005.8 13.4
26/04:00pm 27.3 32.9 25.5 90 1.3 NE 6 17 3 9 1005.4 1005.3 13.4
26/03:30pm 26.5 31.3 24.2 87 1.6 E 6 13 3 7 1005.7 1005.6 13.0
26/03:00pm 30.4 32.9 24.8 72 3.9 NNE 20 28 11 15 1005.7 1005.6 0.0
26/02:30pm 30.8 33.9 24.2 68 4.6 ENE 15 22 8 12 1005.8 1005.7 0.0
26/02:00pm 32.0 35.1 23.5 60 5.9 E 13 19 7 10 1005.7 1005.6 0.0
26/01:30pm 32.3 36.0 24.6 64 5.4 ESE 13 22 7 12 1006.1 1006.0 0.0
26/01:00pm 30.9 33.8 24.5 68 4.5 ESE 17 26 9 14 1006.4 1006.3 0.0
26/12:30pm 31.9 35.1 23.7 62 5.7 ESE 13 22 7 12 1006.8 1006.7 0.0
26/12:00pm 30.6 35.2 24.7 71 4.1 ESE 9 15 5 8 1007.4 1007.3 0.0
26/11:30am 31.3 35.6 24.9 69 4.5 ESE 11 19 6 10 1007.8 1007.7 0.0
26/11:00am 31.2 35.4 24.8 69 4.5 SE 11 20 6 11 1007.9 1007.8 0.0
26/10:30am 30.0 33.6 24.4 72 3.9 SE 13 22 7 12 1008.1 1008.0 0.0
26/10:00am 30.6 35.5 25.2 73 3.8 SE 9 15 5 8 1008.4 1008.3 0.0
26/09:30am 29.4 34.3 25.2 78 3.0 SSE 9 17 5 9 1008.6 1008.5 0.0
26/09:00am 28.7 33.1 24.5 78 2.9 SSE 9 15 5 8 1008.7 1008.6 0.0
26/08:30am 27.9 32.5 24.7 83 2.2 SSE 9 15 5 8 1008.5 1008.4 0.0
26/08:00am 27.1 32.3 25.7 92 1.0 S 9 13 5 7 1008.3 1008.2 0.0
26/07:30am 25.5 32.0 25.0 97 0.3 CALM 0 0 0 0 1008.3 1008.2 0.0
26/07:00am 24.7 30.7 24.2 97 0.3 CALM 0 0 0 0 1008.1 1008.0 0.0
26/06:30am 24.4 30.1 23.7 96 0.5 CALM 0 0 0 0 1007.9 1007.8 0.0
26/06:00am 24.5 30.2 23.8 96 0.5 CALM 0 0 0 0 1007.5 1007.4 0.0
26/05:30am 24.5 29.0 23.6 95 0.6 SSE 6 7 3 4 1007.1 1007.0 0.0
26/05:00am 24.7 29.1 23.8 95 0.6 S 7 9 4 5 1006.8 1006.7 0.0
26/04:30am 24.7 29.3 23.8 95 0.6 SSE 6 7 3 4 1006.7 1006.6 0.0
26/04:00am 24.9 29.4 24.0 95 0.6 SSE 7 9 4 5 1006.8 1006.7 0.0
26/03:30am 24.9 29.9 23.9 94 0.7 SSE 4 7 2 4 1006.9 1006.8 0.0
26/03:00am 25.2 29.5 24.2 94 0.7 SE 9 11 5 6 1007.0 1006.9 0.0
26/02:30am 25.4 31.4 24.2 93 0.8 CALM 0 0 0 0 1007.4 1007.3 0.0
26/02:00am 25.8 30.7 24.6 93 0.8 SSE 7 13 4 7 1007.7 1007.6 0.0
26/01:30am 26.0 31.0 24.8 93 0.8 SSE 7 9 4 5 1007.9 1007.8 0.0
26/01:00am 26.3 31.0 24.9 92 1.0 SSE 9 11 5 6 1008.3 1008.2 0.0
26/12:30am 26.4 31.1 25.0 92 1.0 SSE 9 13 5 7 1008.7 1008.6 0.0
26/12:00am 26.7 31.0 25.5 93 0.8 SSE 13 17 7 9 1008.9 1008.8 0.0
 
Date/Time
CST
Temp
°C
App
Temp
°C
Dew
Point
°C
Rel
Hum
%
Delta-T
°C
Wind Press
QNH
hPa
Press
MSL
hPa
Rain since
9am
mm
Dir  Spd
km/h
Gust
km/h
Spd
kts
Gust
kts
25/11:30pm 26.8 32.4 25.8 94 0.7 S 7 11 4 6 1009.3 1009.2 0.0
25/11:00pm 26.8 32.6 26.1 96 0.5 S 7 9 4 5 1009.4 1009.3 0.0
25/10:30pm 26.6 33.5 25.7 95 0.6 CALM 0 0 0 0 1009.5 1009.4 0.0
25/10:00pm 26.7 33.6 25.7 94 0.7 CALM 0 0 0 0 1009.4 1009.3 0.0
25/09:30pm 26.8 33.6 25.6 93 0.8 CALM 0 0 0 0 1009.2 1009.1 0.0
25/09:00pm 27.0 32.8 25.8 93 0.8 E 6 7 3 4 1008.7 1008.6 0.0
25/08:30pm 26.9 33.7 25.5 92 1.0 CALM 0 0 0 0 1008.3 1008.2 0.0
25/08:00pm 27.2 32.7 25.6 91 1.1 E 7 9 4 5 1008.1 1008.0 0.0
25/07:30pm 27.1 32.4 25.3 90 1.3 E 7 9 4 5 1007.8 1007.7 0.0
25/07:00pm 27.3 32.4 24.9 87 1.7 SE 7 9 4 5 1007.5 1007.4 0.0
25/06:30pm 27.8 32.9 25.0 85 2.0 SSE 7 9 4 5 1007.3 1007.2 0.0
25/06:00pm 28.3 33.5 25.1 83 2.2 SSW 7 11 4 6 1006.7 1006.6 0.0
25/05:30pm 28.4 33.5 25.0 82 2.4 WSW 7 9 4 5 1006.4 1006.3 0.0
25/05:00pm 28.6 34.7 25.0 81 2.5 SSW 2 7 1 4 1006.8 1006.7 0.0
25/04:30pm 28.2 32.1 24.2 79 2.8 SSE 11 17 6 9 1007.2 1007.1 0.0
25/04:00pm 27.6 31.7 24.0 81 2.5 S 9 13 5 7 1007.6 1007.5 0.0
25/03:30pm 27.5 30.9 24.1 82 2.4 S 13 19 7 10 1008.0 1007.9 0.0
25/03:00pm 27.8 32.6 24.4 82 2.4 SSE 7 11 4 6 1008.4 1008.3 0.0
25/02:30pm 26.8 31.4 24.1 85 1.9 S 7 13 4 7 1008.7 1008.6 0.0
25/02:00pm 26.2 31.5 23.1 83 2.1 CALM 0 0 0 0 1009.4 1009.3 0.0
25/01:30pm 25.9 29.8 22.6 82 2.2 NNE 6 13 3 7 1009.7 1009.6 0.0
25/01:00pm 26.2 26.8 22.1 78 2.7 S 22 35 12 19 1010.2 1010.1 0.0
25/12:49pm 27.6 27.4 19.7 62 5.1 SW 20 41 11 22 1009.4 1009.3 0.0
25/12:30pm 31.6 35.3 25.7 71 4.2 W 17 20 9 11 1009.3 1009.2 0.0
25/12:00pm 31.8 35.3 25.4 69 4.5 WNW 17 20 9 11 1009.9 1009.8 0.0
25/11:30am 31.5 34.7 24.4 66 5.0 WNW 15 17 8 9 1010.6 1010.5 0.0
25/11:00am 31.2 35.1 24.8 69 4.5 W 13 15 7 8 1011.0 1010.9 0.0
25/10:30am 30.7 34.7 24.4 69 4.4 W 11 13 6 7 1011.2 1011.1 0.0
25/10:00am 30.1 33.5 24.0 70 4.2 WSW 13 17 7 9 1011.5 1011.4 0.0
25/09:30am 30.0 32.8 23.7 69 4.4 SSW 15 20 8 11 1011.0 1010.9 0.0
25/09:00am 29.5 32.9 23.4 69 4.2 SSE 11 15 6 8 1011.1 1011.0 0.0
25/08:30am 29.1 33.4 24.2 75 3.4 SSE 9 13 5 7 1011.3 1011.2 0.0
25/08:00am 27.6 31.4 24.0 81 2.5 SSE 11 15 6 8 1010.8 1010.7 0.0
25/07:30am 26.6 31.0 25.0 91 1.1 SSE 11 17 6 9 1010.9 1010.8 0.0
25/07:00am 25.6 30.3 24.9 96 0.5 SE 9 11 5 6 1010.6 1010.5 0.0
25/06:30am 25.5 30.1 24.8 96 0.5 SE 9 11 5 6 1010.2 1010.1 0.0
25/06:00am 25.6 30.3 24.9 96 0.5 SE 9 11 5 6 1009.9 1009.8 0.0
25/05:30am 25.9 30.5 25.4 97 0.4 SSE 11 13 6 7 1009.7 1009.6 0.0
25/05:00am 25.8 30.4 25.3 97 0.3 SSE 11 13 6 7 1009.4 1009.3 0.0
25/04:30am 25.6 30.4 25.1 97 0.3 SE 9 11 5 6 1009.1 1009.0 0.0
25/04:00am 25.7 30.6 25.2 97 0.3 SSE 9 11 5 6 1009.0 1008.9 0.0
25/03:30am 25.7 30.8 25.0 96 0.5 SSE 7 9 4 5 1009.1 1009.0 0.0
25/03:00am 25.8 31.0 25.1 96 0.5 SSE 7 9 4 5 1009.3 1009.2 0.0
25/02:30am 25.9 30.8 25.2 96 0.5 SSE 9 9 5 5 1009.5 1009.4 0.0
25/02:00am 25.9 31.2 25.2 96 0.5 SSE 7 7 4 4 1009.7 1009.6 0.0
25/01:30am 25.8 30.6 25.1 96 0.5 SSE 9 11 5 6 1010.0 1009.9 0.0
25/01:00am 25.6 30.7 24.7 95 0.6 SE 6 7 3 4 1010.0 1009.9 0.0
25/12:30am 25.6 31.7 24.4 93 0.8 CALM 0 0 0 0 1010.5 1010.4 0.0
25/12:00am 25.8 32.0 24.6 93 0.8 CALM 0 0 0 0 1011.0 1010.9 0.0
 
Date/Time
CST
Temp
°C
App
Temp
°C
Dew
Point
°C
Rel
Hum
%
Delta-T
°C
Wind Press
QNH
hPa
Press
MSL
hPa
Rain since
9am
mm
Dir  Spd
km/h
Gust
km/h
Spd
kts
Gust
kts
24/11:30pm 25.9 32.0 24.5 92 1.0 CALM 0 0 0 0 1011.1 1011.0 0.0
24/11:00pm 26.2 30.8 24.2 89 1.4 ESE 7 9 4 5 1011.1 1011.0 0.0
24/10:30pm 26.5 30.6 24.0 86 1.7 E 9 11 5 6 1011.0 1010.9 0.0
24/10:00pm 26.6 31.3 24.3 87 1.6 ESE 7 9 4 5 1010.8 1010.7 0.0
24/09:30pm 26.7 31.1 23.8 84 2.0 ENE 7 9 4 5 1010.6 1010.5 0.0
24/09:00pm 27.0 31.1 23.3 80 2.5 NE 7 9 4 5 1010.4 1010.3 0.0
24/08:30pm 27.3 31.3 23.1 78 2.9 NNE 7 7 4 4 1010.1 1010.0 0.0
24/08:00pm 27.7 31.4 22.6 74 3.5 ENE 7 9 4 5 1009.9 1009.8 0.0
24/07:30pm 28.2 32.3 23.3 75 3.4 NE 7 9 4 5 1009.6 1009.5 0.0
24/07:00pm 29.6 33.1 22.8 67 4.6 N 9 13 5 7 1009.2 1009.1 0.0
24/06:30pm 30.2 33.3 22.9 65 5.0 N 11 13 6 7 1008.8 1008.7 0.0
24/06:00pm 30.6 33.4 23.0 64 5.2 N 13 15 7 8 1008.8 1008.7 0.0
24/05:30pm 30.9 34.0 22.8 62 5.6 N 11 17 6 9 1008.9 1008.8 0.0
24/05:00pm 31.4 33.1 23.0 61 5.8 N 19 20 10 11 1008.7 1008.6 0.0
24/04:30pm 31.5 33.4 22.8 60 6.0 N 17 20 9 11 1008.9 1008.8 0.0
24/04:00pm 31.9 34.0 23.7 62 5.7 N 19 22 10 12 1008.8 1008.7 0.0
24/03:30pm 32.0 33.6 23.3 60 6.0 N 20 24 11 13 1009.0 1008.9 0.0
24/03:00pm 31.8 34.0 23.3 60 5.9 NNW 17 20 9 11 1009.3 1009.2 0.0
24/02:30pm 31.9 34.2 23.4 60 5.9 NNW 17 20 9 11 1009.4 1009.3 0.0
24/02:00pm 31.9 34.9 23.4 60 5.9 NNW 13 17 7 9 1010.0 1009.9 0.0
24/01:30pm 32.0 35.4 24.1 63 5.5 NNW 13 17 7 9 1010.2 1010.1 0.0
24/01:00pm 31.7 34.8 23.5 62 5.7 NW 13 15 7 8 1010.7 1010.6 0.0
24/12:30pm 31.6 34.9 24.5 66 5.0 NNW 15 19 8 10 1011.1 1011.0 0.0
24/12:00pm 31.7 33.6 23.5 62 5.7 N 19 20 10 11 1011.6 1011.5 0.0
24/11:30am 31.0 33.0 23.6 64 5.1 N 19 20 10 11 1012.0 1011.9 0.0
24/11:00am 31.0 33.9 23.9 66 4.9 NNW 15 17 8 9 1012.5 1012.4 0.0
24/10:30am 30.3 33.7 24.0 69 4.4 NNW 13 15 7 8 1012.6 1012.5 0.0
24/10:00am 30.1 33.9 24.0 70 4.2 N 11 13 6 7 1012.6 1012.5 0.0
24/09:30am 30.0 33.7 23.9 70 4.2 N 11 15 6 8 1012.5 1012.4 0.0

Other Formats:

Comma delimited format used in spreadsheet applications
http://www.bom.gov.au/fwo/IDD60801/IDD60801.95146.axf

JavaScript Object Notation format (JSON) in row-major order
http://www.bom.gov.au/fwo/IDD60801/IDD60801.95146.json